sensor_id;sensor_type;location;lat;lon;timestamp;pressure;altitude;pressure_sealevel;temperature;humidity
55990;BME280;41875;55.806;38.082;2023-03-04T00:00:05;97656.13;;;1.31;57.46
55990;BME280;41875;55.806;38.082;2023-03-04T00:02:38;97655.81;;;1.16;57.82
55990;BME280;41875;55.806;38.082;2023-03-04T00:05:07;97655.28;;;1.40;57.68
55990;BME280;41875;55.806;38.082;2023-03-04T00:07:36;97648.44;;;1.57;56.68
55990;BME280;41875;55.806;38.082;2023-03-04T00:10:05;97654.31;;;1.59;56.98
55990;BME280;41875;55.806;38.082;2023-03-04T00:12:34;97644.03;;;1.94;55.75
55990;BME280;41875;55.806;38.082;2023-03-04T00:15:03;97640.88;;;1.54;56.61
55990;BME280;41875;55.806;38.082;2023-03-04T00:17:31;97639.81;;;1.29;57.25
55990;BME280;41875;55.806;38.082;2023-03-04T00:20:01;97632.84;;;1.47;57.20
55990;BME280;41875;55.806;38.082;2023-03-04T00:22:30;97633.06;;;1.54;57.27
55990;BME280;41875;55.806;38.082;2023-03-04T00:24:58;97629.47;;;1.55;57.13
55990;BME280;41875;55.806;38.082;2023-03-04T00:27:26;97628.56;;;1.28;57.60
55990;BME280;41875;55.806;38.082;2023-03-04T00:29:55;97623.50;;;0.99;58.45
55990;BME280;41875;55.806;38.082;2023-03-04T00:32:24;97617.63;;;1.25;58.01
55990;BME280;41875;55.806;38.082;2023-03-04T00:34:52;97615.66;;;0.99;58.56
55990;BME280;41875;55.806;38.082;2023-03-04T00:37:22;97611.94;;;1.11;57.97
55990;BME280;41875;55.806;38.082;2023-03-04T00:39:51;97611.63;;;0.86;58.75
55990;BME280;41875;55.806;38.082;2023-03-04T00:42:20;97600.47;;;0.94;58.77
55990;BME280;41875;55.806;38.082;2023-03-04T00:44:48;97600.75;;;1.19;58.08
55990;BME280;41875;55.806;38.082;2023-03-04T00:47:17;97601.34;;;1.31;57.92
55990;BME280;41875;55.806;38.082;2023-03-04T00:49:45;97596.03;;;1.04;58.88
55990;BME280;41875;55.806;38.082;2023-03-04T00:52:14;97589.03;;;0.77;59.26
55990;BME280;41875;55.806;38.082;2023-03-04T00:54:43;97598.56;;;1.42;58.40
55990;BME280;41875;55.806;38.082;2023-03-04T00:57:12;97589.78;;;1.15;58.08
55990;BME280;41875;55.806;38.082;2023-03-04T00:59:40;97596.50;;;1.18;58.69
55990;BME280;41875;55.806;38.082;2023-03-04T01:02:09;97590.53;;;0.80;59.27
55990;BME280;41875;55.806;38.082;2023-03-04T01:04:38;97577.84;;;0.67;59.73
55990;BME280;41875;55.806;38.082;2023-03-04T01:07:07;97579.38;;;0.87;59.14
55990;BME280;41875;55.806;38.082;2023-03-04T01:09:36;97576.31;;;0.64;60.02
55990;BME280;41875;55.806;38.082;2023-03-04T01:12:06;97572.94;;;0.54;59.86
55990;BME280;41875;55.806;38.082;2023-03-04T01:14:36;97577.53;;;0.32;60.62
55990;BME280;41875;55.806;38.082;2023-03-04T01:17:04;97562.47;;;0.36;60.81
55990;BME280;41875;55.806;38.082;2023-03-04T01:19:32;97569.13;;;0.48;60.10
55990;BME280;41875;55.806;38.082;2023-03-04T01:22:01;97570.53;;;0.42;60.45
55990;BME280;41875;55.806;38.082;2023-03-04T01:24:29;97564.88;;;0.47;60.77
55990;BME280;41875;55.806;38.082;2023-03-04T01:26:58;97563.75;;;0.12;61.72
55990;BME280;41875;55.806;38.082;2023-03-04T01:29:28;97556.06;;;0.20;61.51
55990;BME280;41875;55.806;38.082;2023-03-04T01:31:56;97565.16;;;-0.04;62.50
55990;BME280;41875;55.806;38.082;2023-03-04T01:34:25;97570.78;;;-0.08;62.81
55990;BME280;41875;55.806;38.082;2023-03-04T01:36:53;97550.47;;;0.05;62.75
55990;BME280;41875;55.806;38.082;2023-03-04T01:39:22;97559.41;;;-0.07;62.40
55990;BME280;41875;55.806;38.082;2023-03-04T01:41:50;97553.53;;;-0.29;63.07
55990;BME280;41875;55.806;38.082;2023-03-04T01:44:19;97571.38;;;0.33;61.87
55990;BME280;41875;55.806;38.082;2023-03-04T01:46:51;97570.06;;;0.19;62.15
55990;BME280;41875;55.806;38.082;2023-03-04T01:49:23;97576.16;;;-0.20;63.58
55990;BME280;41875;55.806;38.082;2023-03-04T01:51:53;97576.00;;;-0.18;63.06
55990;BME280;41875;55.806;38.082;2023-03-04T01:54:22;97573.63;;;0.08;62.69
55990;BME280;41875;55.806;38.082;2023-03-04T01:56:51;97577.50;;;0.42;61.83
55990;BME280;41875;55.806;38.082;2023-03-04T01:59:21;97567.69;;;0.26;62.13
55990;BME280;41875;55.806;38.082;2023-03-04T02:01:53;97566.47;;;0.68;61.30
55990;BME280;41875;55.806;38.082;2023-03-04T02:04:24;97560.13;;;0.70;60.63
55990;BME280;41875;55.806;38.082;2023-03-04T02:06:54;97552.44;;;0.69;60.69
55990;BME280;41875;55.806;38.082;2023-03-04T02:09:23;97551.66;;;0.58;61.48
55990;BME280;41875;55.806;38.082;2023-03-04T02:11:52;97550.94;;;0.38;61.71
55990;BME280;41875;55.806;38.082;2023-03-04T02:14:21;97552.19;;;0.34;61.81
55990;BME280;41875;55.806;38.082;2023-03-04T02:16:52;97544.69;;;0.21;62.53
55990;BME280;41875;55.806;38.082;2023-03-04T02:19:30;97545.22;;;0.25;63.16
55990;BME280;41875;55.806;38.082;2023-03-04T02:22:04;97540.44;;;0.20;62.48
55990;BME280;41875;55.806;38.082;2023-03-04T02:24:35;97530.72;;;0.22;62.25
55990;BME280;41875;55.806;38.082;2023-03-04T02:27:08;97530.72;;;0.22;62.68
55990;BME280;41875;55.806;38.082;2023-03-04T02:29:37;97529.53;;;0.44;61.99
55990;BME280;41875;55.806;38.082;2023-03-04T02:32:10;97533.91;;;-0.04;63.12
55990;BME280;41875;55.806;38.082;2023-03-04T02:34:45;97518.97;;;0.46;62.23
55990;BME280;41875;55.806;38.082;2023-03-04T02:37:15;97509.91;;;0.12;63.10
55990;BME280;41875;55.806;38.082;2023-03-04T02:39:46;97503.28;;;0.28;62.86
55990;BME280;41875;55.806;38.082;2023-03-04T02:42:17;97500.84;;;0.17;63.14
55990;BME280;41875;55.806;38.082;2023-03-04T02:44:46;97497.00;;;0.21;63.07
55990;BME280;41875;55.806;38.082;2023-03-04T02:47:18;97499.47;;;0.22;62.73
55990;BME280;41875;55.806;38.082;2023-03-04T02:49:48;97502.69;;;0.34;62.70
55990;BME280;41875;55.806;38.082;2023-03-04T02:52:19;97497.81;;;0.21;63.17
55990;BME280;41875;55.806;38.082;2023-03-04T02:54:48;97487.16;;;0.14;63.02
55990;BME280;41875;55.806;38.082;2023-03-04T02:57:19;97485.31;;;-0.03;63.69
55990;BME280;41875;55.806;38.082;2023-03-04T02:59:52;97478.25;;;0.17;63.52
55990;BME280;41875;55.806;38.082;2023-03-04T03:02:23;97484.53;;;-0.23;63.95
55990;BME280;41875;55.806;38.082;2023-03-04T03:04:52;97477.63;;;-0.05;63.78
55990;BME280;41875;55.806;38.082;2023-03-04T03:07:20;97477.34;;;-0.02;64.07
55990;BME280;41875;55.806;38.082;2023-03-04T03:09:49;97479.97;;;0.26;63.38
55990;BME280;41875;55.806;38.082;2023-03-04T03:12:19;97472.28;;;0.35;62.85
55990;BME280;41875;55.806;38.082;2023-03-04T03:14:48;97468.78;;;0.16;63.12
55990;BME280;41875;55.806;38.082;2023-03-04T03:17:19;97465.31;;;0.25;62.90
55990;BME280;41875;55.806;38.082;2023-03-04T03:19:47;97457.34;;;-0.01;63.31
55990;BME280;41875;55.806;38.082;2023-03-04T03:22:16;97453.53;;;-0.54;64.64
55990;BME280;41875;55.806;38.082;2023-03-04T03:24:44;97445.72;;;-0.54;65.49
55990;BME280;41875;55.806;38.082;2023-03-04T03:27:13;97451.63;;;-0.82;66.00
55990;BME280;41875;55.806;38.082;2023-03-04T03:29:42;97452.06;;;-0.29;65.83
55990;BME280;41875;55.806;38.082;2023-03-04T03:32:11;97439.84;;;-0.66;65.80
55990;BME280;41875;55.806;38.082;2023-03-04T03:34:40;97442.41;;;-0.47;64.65
55990;BME280;41875;55.806;38.082;2023-03-04T03:37:09;97447.94;;;-0.99;66.91
55990;BME280;41875;55.806;38.082;2023-03-04T03:39:37;97432.66;;;-0.35;65.99
55990;BME280;41875;55.806;38.082;2023-03-04T03:42:06;97429.88;;;-0.71;65.36
55990;BME280;41875;55.806;38.082;2023-03-04T03:44:34;97424.06;;;-0.55;65.57
55990;BME280;41875;55.806;38.082;2023-03-04T03:47:04;97430.41;;;-1.26;67.11
55990;BME280;41875;55.806;38.082;2023-03-04T03:49:33;97426.72;;;-1.24;67.94
55990;BME280;41875;55.806;38.082;2023-03-04T03:52:01;97428.53;;;-1.14;66.77
55990;BME280;41875;55.806;38.082;2023-03-04T03:54:29;97414.28;;;-0.81;66.03
55990;BME280;41875;55.806;38.082;2023-03-04T03:56:58;97437.94;;;-1.03;66.91
55990;BME280;41875;55.806;38.082;2023-03-04T03:59:26;97426.16;;;-0.88;67.38
55990;BME280;41875;55.806;38.082;2023-03-04T04:01:55;97434.09;;;-1.19;67.07
55990;BME280;41875;55.806;38.082;2023-03-04T04:04:25;97424.25;;;-0.76;66.43
55990;BME280;41875;55.806;38.082;2023-03-04T04:06:53;97419.75;;;-1.23;67.85
55990;BME280;41875;55.806;38.082;2023-03-04T04:09:22;97419.47;;;-1.20;68.09
55990;BME280;41875;55.806;38.082;2023-03-04T04:11:50;97406.59;;;-0.82;66.96
55990;BME280;41875;55.806;38.082;2023-03-04T04:14:19;97413.06;;;-1.16;67.85
55990;BME280;41875;55.806;38.082;2023-03-04T04:16:47;97409.38;;;-1.23;68.71
55990;BME280;41875;55.806;38.082;2023-03-04T04:19:16;97399.78;;;-0.83;67.53
55990;BME280;41875;55.806;38.082;2023-03-04T04:21:46;97388.56;;;-0.84;67.93
55990;BME280;41875;55.806;38.082;2023-03-04T04:24:15;97389.66;;;-0.96;67.74
55990;BME280;41875;55.806;38.082;2023-03-04T04:26:43;97393.66;;;-0.44;66.91
55990;BME280;41875;55.806;38.082;2023-03-04T04:29:13;97390.47;;;-1.05;68.34
55990;BME280;41875;55.806;38.082;2023-03-04T04:31:41;97395.66;;;-0.96;68.48
55990;BME280;41875;55.806;38.082;2023-03-04T04:34:10;97390.16;;;-0.63;68.17
55990;BME280;41875;55.806;38.082;2023-03-04T04:36:38;97382.81;;;-0.97;68.68
55990;BME280;41875;55.806;38.082;2023-03-04T04:39:08;97384.38;;;-0.57;67.27
55990;BME280;41875;55.806;38.082;2023-03-04T04:41:39;97381.94;;;-0.68;67.55
55990;BME280;41875;55.806;38.082;2023-03-04T04:44:09;97382.25;;;-0.81;68.11
55990;BME280;41875;55.806;38.082;2023-03-04T04:46:38;97389.34;;;-0.26;66.21
55990;BME280;41875;55.806;38.082;2023-03-04T04:49:07;97390.41;;;-0.09;65.95
55990;BME280;41875;55.806;38.082;2023-03-04T04:51:37;97384.06;;;-0.06;65.29
55990;BME280;41875;55.806;38.082;2023-03-04T04:54:07;97385.34;;;-0.58;67.38
55990;BME280;41875;55.806;38.082;2023-03-04T04:56:36;97386.03;;;-0.18;66.07
55990;BME280;41875;55.806;38.082;2023-03-04T04:59:06;97392.28;;;-0.39;66.54
55990;BME280;41875;55.806;38.082;2023-03-04T05:01:34;97390.72;;;-0.22;66.59
55990;BME280;41875;55.806;38.082;2023-03-04T05:04:03;97374.94;;;-0.58;67.14
55990;BME280;41875;55.806;38.082;2023-03-04T05:06:32;97382.44;;;-0.45;66.39
55990;BME280;41875;55.806;38.082;2023-03-04T05:09:00;97387.16;;;-0.21;66.45
55990;BME280;41875;55.806;38.082;2023-03-04T05:11:32;97382.63;;;-0.56;67.18
55990;BME280;41875;55.806;38.082;2023-03-04T05:14:00;97379.34;;;-0.21;66.01
55990;BME280;41875;55.806;38.082;2023-03-04T05:16:29;97380.34;;;-0.04;65.65
55990;BME280;41875;55.806;38.082;2023-03-04T05:18:57;97376.94;;;-0.32;66.13
55990;BME280;41875;55.806;38.082;2023-03-04T05:21:25;97383.66;;;-0.11;65.83
55990;BME280;41875;55.806;38.082;2023-03-04T05:23:54;97384.75;;;-0.04;65.69
55990;BME280;41875;55.806;38.082;2023-03-04T05:26:22;97390.63;;;-0.02;65.34
55990;BME280;41875;55.806;38.082;2023-03-04T05:28:52;97383.81;;;-0.13;65.55
55990;BME280;41875;55.806;38.082;2023-03-04T05:31:21;97388.78;;;-0.20;65.85
55990;BME280;41875;55.806;38.082;2023-03-04T05:33:49;97390.09;;;0.22;64.70
55990;BME280;41875;55.806;38.082;2023-03-04T05:36:18;97401.41;;;0.03;65.23
55990;BME280;41875;55.806;38.082;2023-03-04T05:38:47;97387.19;;;0.25;65.06
55990;BME280;41875;55.806;38.082;2023-03-04T05:41:16;97376.38;;;0.48;64.15
55990;BME280;41875;55.806;38.082;2023-03-04T05:43:48;97378.97;;;0.66;63.76
55990;BME280;41875;55.806;38.082;2023-03-04T05:46:18;97376.44;;;0.74;62.51
55990;BME280;41875;55.806;38.082;2023-03-04T05:48:52;97373.00;;;0.92;62.23
55990;BME280;41875;55.806;38.082;2023-03-04T05:51:21;97372.34;;;0.90;62.41
55990;BME280;41875;55.806;38.082;2023-03-04T05:53:49;97368.94;;;0.71;63.13
55990;BME280;41875;55.806;38.082;2023-03-04T05:56:19;97362.34;;;1.03;62.46
55990;BME280;41875;55.806;38.082;2023-03-04T05:58:50;97367.03;;;1.00;61.64
55990;BME280;41875;55.806;38.082;2023-03-04T06:01:21;97362.44;;;0.94;61.67
55990;BME280;41875;55.806;38.082;2023-03-04T06:03:50;97354.66;;;1.02;61.77
55990;BME280;41875;55.806;38.082;2023-03-04T06:06:18;97351.28;;;1.10;61.86
55990;BME280;41875;55.806;38.082;2023-03-04T06:08:47;97357.09;;;0.77;62.15
55990;BME280;41875;55.806;38.082;2023-03-04T06:11:15;97356.75;;;0.98;61.79
55990;BME280;41875;55.806;38.082;2023-03-04T06:13:45;97346.13;;;0.55;62.81
55990;BME280;41875;55.806;38.082;2023-03-04T06:16:14;97337.75;;;1.06;61.29
55990;BME280;41875;55.806;38.082;2023-03-04T06:18:44;97341.47;;;1.30;61.42
55990;BME280;41875;55.806;38.082;2023-03-04T06:21:12;97346.88;;;1.36;61.09
55990;BME280;41875;55.806;38.082;2023-03-04T06:23:40;97336.72;;;1.51;60.14
55990;BME280;41875;55.806;38.082;2023-03-04T06:26:10;97339.91;;;2.15;59.00
55990;BME280;41875;55.806;38.082;2023-03-04T06:28:41;97339.59;;;2.18;58.42
55990;BME280;41875;55.806;38.082;2023-03-04T06:31:10;97338.13;;;1.72;59.54
55990;BME280;41875;55.806;38.082;2023-03-04T06:33:39;97339.22;;;1.09;61.46
55990;BME280;41875;55.806;38.082;2023-03-04T06:36:11;97342.84;;;0.53;63.05
55990;BME280;41875;55.806;38.082;2023-03-04T06:38:39;97346.06;;;0.29;63.78
55990;BME280;41875;55.806;38.082;2023-03-04T06:41:09;97342.78;;;1.26;61.29
55990;BME280;41875;55.806;38.082;2023-03-04T06:43:38;97327.13;;;1.60;60.67
55990;BME280;41875;55.806;38.082;2023-03-04T06:46:10;97318.84;;;2.16;58.38
55990;BME280;41875;55.806;38.082;2023-03-04T06:48:39;97320.53;;;2.50;57.33
55990;BME280;41875;55.806;38.082;2023-03-04T06:51:08;97313.03;;;2.64;56.40
55990;BME280;41875;55.806;38.082;2023-03-04T06:53:39;97305.28;;;2.12;57.97
55990;BME280;41875;55.806;38.082;2023-03-04T06:56:10;97317.09;;;1.82;58.38
55990;BME280;41875;55.806;38.082;2023-03-04T06:58:39;97308.44;;;2.33;57.20
55990;BME280;41875;55.806;38.082;2023-03-04T07:01:12;97309.47;;;1.89;57.66
55990;BME280;41875;55.806;38.082;2023-03-04T07:03:41;97310.72;;;1.76;58.11
55990;BME280;41875;55.806;38.082;2023-03-04T07:06:12;97312.53;;;1.41;59.92
55990;BME280;41875;55.806;38.082;2023-03-04T07:08:43;97306.25;;;2.11;57.72
55990;BME280;41875;55.806;38.082;2023-03-04T07:11:12;97301.56;;;2.23;57.20
55990;BME280;41875;55.806;38.082;2023-03-04T07:13:41;97296.84;;;3.01;55.14
55990;BME280;41875;55.806;38.082;2023-03-04T07:16:12;97295.19;;;3.00;54.96
55990;BME280;41875;55.806;38.082;2023-03-04T07:18:40;97285.38;;;3.02;54.93
55990;BME280;41875;55.806;38.082;2023-03-04T07:21:09;97281.28;;;4.04;52.63
55990;BME280;41875;55.806;38.082;2023-03-04T07:23:38;97281.34;;;4.19;51.77
55990;BME280;41875;55.806;38.082;2023-03-04T07:26:08;97280.56;;;3.47;53.80
55990;BME280;41875;55.806;38.082;2023-03-04T07:28:36;97282.28;;;2.90;54.28
55990;BME280;41875;55.806;38.082;2023-03-04T07:31:11;97277.69;;;3.09;54.60
55990;BME280;41875;55.806;38.082;2023-03-04T07:33:40;97273.50;;;2.83;55.23
55990;BME280;41875;55.806;38.082;2023-03-04T07:36:09;97271.31;;;3.20;54.26
55990;BME280;41875;55.806;38.082;2023-03-04T07:38:43;97267.09;;;2.36;55.95
55990;BME280;41875;55.806;38.082;2023-03-04T07:41:13;97266.94;;;2.79;55.49
55990;BME280;41875;55.806;38.082;2023-03-04T07:43:42;97262.84;;;3.89;52.88
55990;BME280;41875;55.806;38.082;2023-03-04T07:46:11;97258.69;;;3.24;53.92
55990;BME280;41875;55.806;38.082;2023-03-04T07:48:40;97254.38;;;2.66;55.47
55990;BME280;41875;55.806;38.082;2023-03-04T07:51:10;97260.41;;;3.00;54.41
55990;BME280;41875;55.806;38.082;2023-03-04T07:53:41;97253.78;;;3.20;53.92
55990;BME280;41875;55.806;38.082;2023-03-04T07:56:11;97255.22;;;3.31;53.96
55990;BME280;41875;55.806;38.082;2023-03-04T07:58:42;97255.66;;;3.51;53.29
55990;BME280;41875;55.806;38.082;2023-03-04T08:01:12;97236.41;;;4.07;51.95
55990;BME280;41875;55.806;38.082;2023-03-04T08:03:40;97232.78;;;4.70;49.66
55990;BME280;41875;55.806;38.082;2023-03-04T08:06:12;97232.66;;;4.25;50.65
55990;BME280;41875;55.806;38.082;2023-03-04T08:08:41;97232.59;;;3.78;52.08
55990;BME280;41875;55.806;38.082;2023-03-04T08:11:12;97236.97;;;4.18;50.69
55990;BME280;41875;55.806;38.082;2023-03-04T08:13:43;97236.81;;;5.11;49.01
55990;BME280;41875;55.806;38.082;2023-03-04T08:16:12;97235.38;;;4.93;48.18
55990;BME280;41875;55.806;38.082;2023-03-04T08:18:42;97223.78;;;5.02;48.29
55990;BME280;41875;55.806;38.082;2023-03-04T08:21:11;97225.38;;;3.89;50.90
55990;BME280;41875;55.806;38.082;2023-03-04T08:23:40;97223.91;;;4.33;49.84
55990;BME280;41875;55.806;38.082;2023-03-04T08:26:11;97213.78;;;5.73;47.19
55990;BME280;41875;55.806;38.082;2023-03-04T08:28:42;97216.38;;;7.10;43.97
55990;BME280;41875;55.806;38.082;2023-03-04T08:31:11;97202.56;;;6.22;44.64
55990;BME280;41875;55.806;38.082;2023-03-04T08:33:40;97204.91;;;6.10;44.94
55990;BME280;41875;55.806;38.082;2023-03-04T08:36:09;97194.13;;;5.90;44.58
55990;BME280;41875;55.806;38.082;2023-03-04T08:38:38;97206.56;;;4.70;47.84
55990;BME280;41875;55.806;38.082;2023-03-04T08:41:07;97201.91;;;4.95;46.96
55990;BME280;41875;55.806;38.082;2023-03-04T08:43:35;97197.47;;;5.77;44.80
55990;BME280;41875;55.806;38.082;2023-03-04T08:46:05;97200.16;;;5.32;46.25
55990;BME280;41875;55.806;38.082;2023-03-04T08:48:35;97185.53;;;5.60;45.67
55990;BME280;41875;55.806;38.082;2023-03-04T08:51:07;97184.78;;;5.14;46.49
55990;BME280;41875;55.806;38.082;2023-03-04T08:53:36;97185.00;;;6.23;43.93
55990;BME280;41875;55.806;38.082;2023-03-04T08:56:06;97183.03;;;6.10;43.65
55990;BME280;41875;55.806;38.082;2023-03-04T08:58:35;97185.81;;;4.98;46.26
55990;BME280;41875;55.806;38.082;2023-03-04T09:01:06;97174.41;;;5.58;46.92
55990;BME280;41875;55.806;38.082;2023-03-04T09:03:35;97183.41;;;4.58;48.71
55990;BME280;41875;55.806;38.082;2023-03-04T09:06:05;97178.16;;;5.48;47.26
55990;BME280;41875;55.806;38.082;2023-03-04T09:08:39;97182.41;;;5.34;47.08
55990;BME280;41875;55.806;38.082;2023-03-04T09:11:07;97180.97;;;4.72;48.86
55990;BME280;41875;55.806;38.082;2023-03-04T09:13:36;97170.91;;;5.51;47.60
55990;BME280;41875;55.806;38.082;2023-03-04T09:16:10;97170.94;;;4.76;48.58
55990;BME280;41875;55.806;38.082;2023-03-04T09:18:40;97159.66;;;4.75;49.50
55990;BME280;41875;55.806;38.082;2023-03-04T09:21:09;97146.03;;;5.31;48.45
55990;BME280;41875;55.806;38.082;2023-03-04T09:23:37;97150.31;;;5.54;46.84
55990;BME280;41875;55.806;38.082;2023-03-04T09:26:14;97154.09;;;4.85;49.09
55990;BME280;41875;55.806;38.082;2023-03-04T09:28:43;97144.34;;;4.94;49.36
55990;BME280;41875;55.806;38.082;2023-03-04T09:31:14;97140.09;;;4.78;49.64
55990;BME280;41875;55.806;38.082;2023-03-04T09:33:43;97135.66;;;4.63;50.55
55990;BME280;41875;55.806;38.082;2023-03-04T09:36:13;97130.59;;;5.07;49.97
55990;BME280;41875;55.806;38.082;2023-03-04T09:38:41;97130.91;;;5.33;49.31
55990;BME280;41875;55.806;38.082;2023-03-04T09:41:15;97125.63;;;5.48;48.98
55990;BME280;41875;55.806;38.082;2023-03-04T09:43:44;97103.84;;;5.33;48.26
55990;BME280;41875;55.806;38.082;2023-03-04T09:46:18;97106.13;;;5.21;49.52
55990;BME280;41875;55.806;38.082;2023-03-04T09:48:51;97092.88;;;4.93;50.25
55990;BME280;41875;55.806;38.082;2023-03-04T09:51:36;97095.56;;;5.73;47.99
55990;BME280;41875;55.806;38.082;2023-03-04T09:54:10;97092.88;;;6.73;45.34
55990;BME280;41875;55.806;38.082;2023-03-04T09:56:42;97076.16;;;5.95;46.35
55990;BME280;41875;55.806;38.082;2023-03-04T09:59:16;97083.13;;;5.23;48.04
55990;BME280;41875;55.806;38.082;2023-03-04T10:01:53;97074.13;;;5.11;47.39
55990;BME280;41875;55.806;38.082;2023-03-04T10:04:29;97080.38;;;3.81;50.84
55990;BME280;41875;55.806;38.082;2023-03-04T10:07:02;97071.13;;;5.51;47.38
55990;BME280;41875;55.806;38.082;2023-03-04T10:09:42;97061.38;;;6.16;45.14
55990;BME280;41875;55.806;38.082;2023-03-04T10:12:15;97059.59;;;6.52;44.27
55990;BME280;41875;55.806;38.082;2023-03-04T10:14:48;97064.78;;;4.56;48.79
55990;BME280;41875;55.806;38.082;2023-03-04T10:17:22;97050.84;;;4.41;50.67
55990;BME280;41875;55.806;38.082;2023-03-04T10:19:55;97056.47;;;4.53;49.86
55990;BME280;41875;55.806;38.082;2023-03-04T10:22:32;97055.53;;;4.46;50.00
55990;BME280;41875;55.806;38.082;2023-03-04T10:25:15;97054.66;;;4.53;50.05
55990;BME280;41875;55.806;38.082;2023-03-04T10:27:49;97042.31;;;3.71;51.94
55990;BME280;41875;55.806;38.082;2023-03-04T10:30:29;97043.69;;;4.35;51.44
55990;BME280;41875;55.806;38.082;2023-03-04T10:33:01;97027.41;;;4.69;49.54
55990;BME280;41875;55.806;38.082;2023-03-04T10:35:33;97030.47;;;5.46;48.08
55990;BME280;41875;55.806;38.082;2023-03-04T10:38:03;97021.84;;;5.31;47.93
55990;BME280;41875;55.806;38.082;2023-03-04T10:40:38;97018.41;;;5.74;47.02
55990;BME280;41875;55.806;38.082;2023-03-04T10:43:14;97007.72;;;5.32;47.04
55990;BME280;41875;55.806;38.082;2023-03-04T10:45:43;97005.75;;;6.13;45.80
55990;BME280;41875;55.806;38.082;2023-03-04T10:48:22;97003.31;;;6.46;44.42
55990;BME280;41875;55.806;38.082;2023-03-04T10:50:51;96993.09;;;6.23;44.23
55990;BME280;41875;55.806;38.082;2023-03-04T10:53:24;96995.06;;;5.92;46.06
55990;BME280;41875;55.806;38.082;2023-03-04T10:55:55;96990.03;;;4.97;47.64
55990;BME280;41875;55.806;38.082;2023-03-04T10:58:24;96984.38;;;5.65;46.06
55990;BME280;41875;55.806;38.082;2023-03-04T11:01:00;96988.94;;;6.07;45.34
55990;BME280;41875;55.806;38.082;2023-03-04T11:03:33;96982.44;;;6.03;45.80
55990;BME280;41875;55.806;38.082;2023-03-04T11:06:11;96974.22;;;5.84;46.25
55990;BME280;41875;55.806;38.082;2023-03-04T11:08:43;96981.66;;;6.09;45.57
55990;BME280;41875;55.806;38.082;2023-03-04T11:11:30;96967.41;;;6.25;45.40
55990;BME280;41875;55.806;38.082;2023-03-04T11:14:05;96950.75;;;5.32;46.77
55990;BME280;41875;55.806;38.082;2023-03-04T11:16:37;96956.38;;;6.08;45.45
55990;BME280;41875;55.806;38.082;2023-03-04T11:19:14;96950.44;;;5.64;46.24
55990;BME280;41875;55.806;38.082;2023-03-04T11:21:44;96931.06;;;6.00;45.51
55990;BME280;41875;55.806;38.082;2023-03-04T11:24:18;96941.38;;;5.73;45.84
55990;BME280;41875;55.806;38.082;2023-03-04T11:27:00;96934.13;;;5.47;46.51
55990;BME280;41875;55.806;38.082;2023-03-04T11:29:34;96934.47;;;4.72;47.80
55990;BME280;41875;55.806;38.082;2023-03-04T11:32:08;96925.78;;;5.37;47.34
55990;BME280;41875;55.806;38.082;2023-03-04T11:34:45;96931.34;;;6.12;45.52
55990;BME280;41875;55.806;38.082;2023-03-04T11:37:21;96930.53;;;5.55;46.75
55990;BME280;41875;55.806;38.082;2023-03-04T11:39:56;96930.00;;;5.59;46.84
55990;BME280;41875;55.806;38.082;2023-03-04T11:42:33;96928.91;;;5.03;48.39
55990;BME280;41875;55.806;38.082;2023-03-04T11:45:10;96929.44;;;4.55;49.08
55990;BME280;41875;55.806;38.082;2023-03-04T11:48:00;96920.38;;;3.91;52.07
55990;BME280;41875;55.806;38.082;2023-03-04T11:50:40;96917.66;;;3.70;53.84
55990;BME280;41875;55.806;38.082;2023-03-04T11:53:22;96919.66;;;3.68;55.21
55990;BME280;41875;55.806;38.082;2023-03-04T11:56:00;96913.34;;;3.24;56.22
55990;BME280;41875;55.806;38.082;2023-03-04T12:01:54;96904.19;;;3.73;56.42
55990;BME280;41875;55.806;38.082;2023-03-04T12:04:51;96904.22;;;4.39;54.01
55990;BME280;41875;55.806;38.082;2023-03-04T12:07:44;96885.50;;;4.21;54.07
55990;BME280;41875;55.806;38.082;2023-03-04T12:10:20;96891.44;;;4.66;52.55
55990;BME280;41875;55.806;38.082;2023-03-04T12:13:04;96896.47;;;4.46;53.73
55990;BME280;41875;55.806;38.082;2023-03-04T12:15:44;96887.47;;;4.55;53.83
55990;BME280;41875;55.806;38.082;2023-03-04T12:18:28;96879.25;;;4.80;52.67
55990;BME280;41875;55.806;38.082;2023-03-04T12:21:12;96867.72;;;3.71;55.58
55990;BME280;41875;55.806;38.082;2023-03-04T12:24:08;96879.91;;;4.09;55.14
55990;BME280;41875;55.806;38.082;2023-03-04T12:26:41;96873.06;;;3.78;55.90
55990;BME280;41875;55.806;38.082;2023-03-04T12:29:14;96867.81;;;3.93;55.98
55990;BME280;41875;55.806;38.082;2023-03-04T12:31:48;96858.69;;;3.29;57.77
55990;BME280;41875;55.806;38.082;2023-03-04T12:34:43;96853.09;;;3.77;57.16
55990;BME280;41875;55.806;38.082;2023-03-04T12:37:37;96853.53;;;2.97;59.75
55990;BME280;41875;55.806;38.082;2023-03-04T12:40:25;96846.19;;;3.16;59.58
55990;BME280;41875;55.806;38.082;2023-03-04T12:45:56;96840.47;;;2.59;62.15
55990;BME280;41875;55.806;38.082;2023-03-04T12:48:29;96831.97;;;2.80;61.42
55990;BME280;41875;55.806;38.082;2023-03-04T12:51:09;96840.34;;;3.14;61.28
55990;BME280;41875;55.806;38.082;2023-03-04T12:53:49;96840.59;;;2.81;61.94
55990;BME280;41875;55.806;38.082;2023-03-04T12:56:26;96832.31;;;3.15;61.62
55990;BME280;41875;55.806;38.082;2023-03-04T12:58:57;96819.53;;;2.59;62.84
55990;BME280;41875;55.806;38.082;2023-03-04T13:01:30;96826.06;;;2.63;63.15
55990;BME280;41875;55.806;38.082;2023-03-04T13:04:02;96818.66;;;3.05;61.84
55990;BME280;41875;55.806;38.082;2023-03-04T13:06:38;96817.09;;;2.57;62.98
55990;BME280;41875;55.806;38.082;2023-03-04T13:09:18;96807.91;;;2.85;62.85
55990;BME280;41875;55.806;38.082;2023-03-04T13:11:53;96804.66;;;2.59;63.24
55990;BME280;41875;55.806;38.082;2023-03-04T13:14:25;96804.16;;;2.64;63.37
55990;BME280;41875;55.806;38.082;2023-03-04T13:16:55;96772.84;;;2.56;62.75
55990;BME280;41875;55.806;38.082;2023-03-04T13:19:46;96789.16;;;2.96;62.66
55990;BME280;41875;55.806;38.082;2023-03-04T13:22:46;96791.44;;;2.99;62.17
55990;BME280;41875;55.806;38.082;2023-03-04T13:25:34;96776.53;;;2.47;63.65